Time;durP1;ratioP1;P1;durP2;ratioP2;P2;SDS_P1;SDS_P2;PMS_P1;PMS_P2;Temp;Humidity;BMP_temperature;BMP_pressure;BME280_temperature;BME280_humidity;BME280_pressure;Samples;Min_cycle;Max_cycle;Signal;HPM_P1;HPM_P2
2024/01/13 00:44:24;;;;;;;3.50;0.88;;;;;;;1.80;97.22;101343.09;6225969;22;20087;-85
2024/01/13 00:46:53;;;;;;;3.97;1.13;;;;;;;1.70;97.10;101351.75;6220357;23;20040;-91
2024/01/13 01:10:06;;;;;;;1.52;0.77;;;;;;;1.34;94.43;101360.06;6224803;22;20087;-91
2024/01/13 01:12:44;;;;;;;1.42;0.80;;;;;;;1.30;94.21;101374.22;6192398;23;20040;-93
2024/01/13 01:17:53;;;;;;;1.55;0.80;;;;;;;1.23;93.99;101366.88;6214960;23;20027;-86
2024/01/13 01:20:22;;;;;;;1.15;0.63;;;;;;;1.17;93.05;101356.19;6219691;23;20025;-88
2024/01/13 01:22:51;;;;;;;1.75;1.13;;;;;;;1.13;94.55;101359.31;6219700;23;20020;-88
2024/01/13 01:25:23;;;;;;;2.35;0.88;;;;;;;1.05;95.30;101356.16;6216405;23;20039;-89
2024/01/13 01:27:54;;;;;;;0.95;0.45;;;;;;;1.08;94.53;101363.13;6220923;23;20020;-88
2024/01/13 01:30:23;;;;;;;4.50;0.75;;;;;;;1.08;94.47;101365.69;6219078;23;20027;-91
2024/01/13 01:32:52;;;;;;;1.80;0.93;;;;;;;1.03;95.89;101373.91;6219516;23;20065;-86
2024/01/13 01:35:27;;;;;;;4.97;1.13;;;;;;;0.91;96.30;101387.31;6218552;23;20068;-89
2024/01/13 01:40:35;;;;;;;0.22;0.22;;;;;;;0.77;96.26;101383.69;6197075;23;20012;-84
2024/01/13 01:43:04;;;;;;;5.72;1.35;;;;;;;0.66;93.86;101384.50;6216954;23;20034;-87
2024/01/13 01:45:36;;;;;;;1.50;0.82;;;;;;;0.58;94.22;101396.66;6215285;23;20013;-84
2024/01/13 01:48:10;;;;;;;0.95;0.77;;;;;;;0.49;94.07;101378.97;6218822;23;20071;-86
2024/01/13 01:50:39;;;;;;;4.80;1.60;;;;;;;0.39;93.28;101379.00;6218530;23;20030;-86
2024/01/13 02:01:05;;;;;;;6.47;0.65;;;;;;;0.11;92.60;101381.84;6211160;22;20356;-89
2024/01/13 02:03:35;;;;;;;2.13;1.00;;;;;;;0.04;94.03;101373.59;6218640;23;20028;-86
2024/01/13 02:06:17;;;;;;;1.73;0.93;;;;;;;0.01;93.59;101384.44;6218267;23;20032;-92
2024/01/13 02:19:26;;;;;;;2.63;1.05;;;;;;;-0.26;94.33;101378.84;6223117;22;20024;-92
2024/01/13 02:21:57;;;;;;;3.45;1.00;;;;;;;-0.27;96.41;101391.47;6222974;23;20050;-93
2024/01/13 02:24:35;;;;;;;2.00;0.80;;;;;;;-0.27;96.97;101388.91;6224899;23;20144;-90
2024/01/13 02:27:04;;;;;;;3.35;1.00;;;;;;;-0.28;95.14;101395.63;6217225;23;20318;-92
2024/01/13 02:29:35;;;;;;;1.50;0.88;;;;;;;-0.34;93.40;101390.06;6221453;23;20018;-90
2024/01/13 02:32:05;;;;;;;8.40;1.23;;;;;;;-0.38;93.23;101382.94;6221051;23;20075;-94
2024/01/13 02:34:50;;;;;;;2.10;1.23;;;;;;;-0.43;92.44;101386.75;6222394;23;20566;-94
2024/01/13 03:08:24;;;;;;;1.05;0.65;;;;;;;-0.87;80.63;101387.31;6231539;22;20076;-86
2024/01/13 03:10:53;;;;;;;2.97;0.95;;;;;;;-0.92;76.98;101390.22;6227108;23;20048;-86
2024/01/13 03:13:23;;;;;;;2.40;0.80;;;;;;;-0.99;77.38;101398.06;6215495;23;20025;-87
2024/01/13 03:15:58;;;;;;;1.40;0.80;;;;;;;-1.06;75.80;101399.19;6214110;23;20024;-83
2024/01/13 03:18:28;;;;;;;4.25;1.50;;;;;;;-1.12;77.26;101403.78;6209813;23;20031;-83
2024/01/13 03:20:57;;;;;;;5.82;0.98;;;;;;;-1.19;77.07;101409.03;6215872;23;20024;-83
2024/01/13 03:26:03;;;;;;;1.92;0.65;;;;;;;-1.23;78.19;101399.41;6219837;22;20365;-88
2024/01/13 03:28:32;;;;;;;2.30;0.68;;;;;;;-1.28;73.75;101401.53;6212704;23;20017;-86
2024/01/13 03:31:21;;;;;;;;;;;;;;;;;;;;;
2024/01/13 03:47:54;;;;;;;0.90;0.43;;;;;;;-1.66;76.38;101418.47;6229479;22;20024;-83
2024/01/13 03:50:26;;;;;;;0.15;0.15;;;;;;;-1.75;71.47;101421.09;6238185;23;20016;-88
2024/01/13 03:53:01;;;;;;;1.90;0.85;;;;;;;-1.77;71.91;101420.06;6233718;23;20008;-85
2024/01/13 03:55:33;;;;;;;4.50;1.20;;;;;;;-1.85;73.07;101411.78;6233942;23;20017;-85
2024/01/13 03:58:05;;;;;;;3.30;0.90;;;;;;;-1.90;70.11;101424.03;6232464;23;20051;-84
2024/01/13 04:00:34;;;;;;;1.20;0.52;;;;;;;-1.98;67.69;101417.38;6231003;23;20012;-83
2024/01/13 04:03:12;;;;;;;1.17;0.57;;;;;;;-2.09;69.47;101410.44;6230108;23;20523;-86
2024/01/13 04:05:44;;;;;;;2.22;0.68;;;;;;;-2.13;67.65;101423.59;6233020;23;20048;-85
2024/01/13 04:08:16;;;;;;;0.93;0.68;;;;;;;-2.24;68.89;101417.56;6224451;23;20024;-84
2024/01/13 04:10:54;;;;;;;0.00;0.00;;;;;;;-2.36;66.10;101424.94;6227734;23;20016;-83
2024/01/13 04:13:24;;;;;;;0.30;0.20;;;;;;;-2.50;66.45;101401.59;6214373;23;20028;-84
2024/01/13 04:15:53;;;;;;;0.90;0.10;;;;;;;-2.50;66.31;101414.28;6219002;23;20066;-82
2024/01/13 04:18:40;;;;;;;2.25;0.70;;;;;;;-2.55;68.59;101416.38;6222801;23;20027;-84
2024/01/13 04:21:09;;;;;;;2.80;0.88;;;;;;;-2.56;69.23;101427.28;6233903;23;20020;-85
2024/01/13 04:42:51;;;;;;;2.35;0.60;;;;;;;-2.85;67.11;101395.06;6235983;22;20004;-85
2024/01/13 04:45:20;;;;;;;0.20;0.13;;;;;;;-2.87;69.00;101386.44;6221464;23;20021;-86
2024/01/13 04:47:49;;;;;;;0.70;0.52;;;;;;;-2.95;68.92;101385.72;6223766;23;20031;-83
2024/01/13 04:50:21;;;;;;;0.35;0.20;;;;;;;-2.94;69.60;101384.09;6222767;23;20518;-84
2024/01/13 04:52:54;;;;;;;0.17;0.10;;;;;;;-2.92;69.04;101390.19;6225920;23;20048;-85
2024/01/13 04:58:06;;;;;;;0.30;0.20;;;;;;;-2.96;66.15;101390.66;6223359;23;20475;-83
2024/01/13 05:00:38;;;;;;;0.82;0.22;;;;;;;-3.04;65.90;101381.47;6221709;23;20023;-87
2024/01/13 05:03:11;;;;;;;0.20;0.17;;;;;;;-3.02;68.18;101400.22;6224483;23;20021;-83
2024/01/13 05:05:46;;;;;;;1.02;0.55;;;;;;;-3.06;64.15;101398.13;6220121;23;20316;-82
2024/01/13 05:08:18;;;;;;;1.90;1.77;;;;;;;-3.07;65.78;101386.22;6220610;23;20017;-84
2024/01/13 05:10:48;;;;;;;3.63;1.40;;;;;;;-3.09;67.09;101397.84;6226088;23;20026;-84
2024/01/13 05:13:27;;;;;;;1.80;0.60;;;;;;;-3.12;67.78;101390.84;6214705;23;20130;-84
2024/01/13 05:15:56;;;;;;;0.40;0.38;;;;;;;-3.18;66.91;101388.66;6213697;23;20115;-84
2024/01/13 05:18:25;;;;;;;0.82;0.40;;;;;;;-3.19;67.10;101389.38;6213125;23;20043;-84
2024/01/13 05:20:55;;;;;;;3.38;0.70;;;;;;;-3.21;69.15;101397.56;6230402;23;20021;-84
2024/01/13 05:23:29;;;;;;;1.75;1.02;;;;;;;-3.20;66.98;101390.13;6218497;23;20024;-82
2024/01/13 05:25:58;;;;;;;2.95;0.90;;;;;;;-3.20;68.57;101400.25;6217669;23;20075;-83
2024/01/13 05:28:30;;;;;;;3.58;1.20;;;;;;;-3.23;67.42;101394.91;6217173;23;20091;-83
2024/01/13 05:31:09;;;;;;;;;;;;;;;;;;;;;
2024/01/13 05:33:38;;;;;;;1.45;0.57;;;;;;;-3.26;67.91;101402.19;6211011;23;20096;-83
2024/01/13 05:36:08;;;;;;;6.25;0.90;;;;;;;-3.25;69.14;101405.63;6221487;23;20020;-82
2024/01/13 05:38:37;;;;;;;1.85;0.77;;;;;;;-3.22;68.80;101409.34;6222245;23;20051;-83
2024/01/13 05:41:28;;;;;;;0.80;0.65;;;;;;;-3.33;69.56;101389.72;6187561;23;20036;-85
2024/01/13 05:44:13;;;;;;;3.03;0.50;;;;;;;-3.32;67.65;101389.00;6214991;23;20055;-84
2024/01/13 05:46:42;;;;;;;1.80;0.75;;;;;;;-3.34;65.20;101399.69;6216038;23;20017;-83
2024/01/13 05:49:11;;;;;;;1.95;0.98;;;;;;;-3.39;65.02;101414.44;6214242;23;20016;-83
2024/01/13 05:51:40;;;;;;;1.70;0.95;;;;;;;-3.45;67.12;101404.63;6216126;23;20040;-82
2024/01/13 05:54:12;;;;;;;1.30;0.73;;;;;;;-3.48;65.49;101405.97;6215204;23;20017;-84
2024/01/13 05:56:42;;;;;;;1.85;0.82;;;;;;;-3.48;67.27;101406.88;6213824;23;20028;-87
2024/01/13 05:59:12;;;;;;;1.10;0.50;;;;;;;-3.49;69.59;101400.00;6218289;23;20027;-86
2024/01/13 06:01:50;;;;;;;2.05;0.95;;;;;;;-3.51;72.06;101403.16;6214242;23;20100;-86
2024/01/13 06:04:19;;;;;;;2.83;1.13;;;;;;;-3.49;70.83;101389.91;6214183;23;20027;-85
2024/01/13 06:06:48;;;;;;;3.42;0.75;;;;;;;-3.50;67.92;101397.38;6215243;23;20017;-85
2024/01/13 06:09:17;;;;;;;0.95;0.77;;;;;;;-3.47;70.28;101393.47;6213877;23;20021;-83
2024/01/13 06:11:56;;;;;;;2.15;0.70;;;;;;;-3.46;69.23;101391.81;6213105;23;20040;-84
2024/01/13 06:14:33;;;;;;;1.45;0.60;;;;;;;-3.49;68.33;101389.91;6207182;23;20444;-88
2024/01/13 06:17:02;;;;;;;3.15;0.93;;;;;;;-3.50;69.01;101388.13;6207300;23;20024;-84
2024/01/13 06:19:35;;;;;;;1.02;0.50;;;;;;;-3.51;68.60;101385.44;6213367;23;20017;-84
2024/01/13 06:22:04;;;;;;;1.83;1.00;;;;;;;-3.59;71.55;101378.00;6214314;23;20023;-85
2024/01/13 06:24:33;;;;;;;0.88;0.40;;;;;;;-3.54;69.56;101387.69;6212220;23;20019;-81
2024/01/13 06:27:01;;;;;;;3.28;0.82;;;;;;;-3.57;71.73;101375.66;6213242;23;20059;-82
2024/01/13 06:29:38;;;;;;;1.27;0.75;;;;;;;-3.55;71.94;101383.34;6213060;23;20021;-82
2024/01/13 06:32:08;;;;;;;0.00;0.00;;;;;;;-3.61;71.34;101384.56;6213306;23;20196;-83
2024/01/13 06:34:37;;;;;;;0.20;0.15;;;;;;;-3.60;73.48;101378.78;6211064;23;20048;-83
2024/01/13 06:37:06;;;;;;;3.35;0.82;;;;;;;-3.58;74.47;101377.25;6215684;23;20036;-83
2024/01/13 06:39:35;;;;;;;1.30;0.73;;;;;;;-3.60;73.39;101367.75;6211813;23;20082;-83
2024/01/13 06:42:07;;;;;;;1.35;0.68;;;;;;;-3.67;75.01;101363.72;6214067;23;20028;-84
2024/01/13 06:44:38;;;;;;;2.10;0.98;;;;;;;-3.65;75.95;101372.34;6213826;23;20040;-85
2024/01/13 06:47:08;;;;;;;0.75;0.60;;;;;;;-3.68;75.35;101372.06;6214004;23;20017;-84
2024/01/13 06:49:44;;;;;;;0.90;0.63;;;;;;;-3.63;76.76;101375.94;6213307;23;20464;-84
2024/01/13 06:52:13;;;;;;;1.20;0.60;;;;;;;-3.61;76.68;101376.97;6216036;23;20027;-85
2024/01/13 06:54:43;;;;;;;1.58;1.00;;;;;;;-3.59;76.78;101372.97;6214321;23;20044;-84
2024/01/13 06:57:12;;;;;;;0.55;0.40;;;;;;;-3.67;75.72;101368.78;6214268;23;20021;-84
2024/01/13 06:59:47;;;;;;;0.93;0.55;;;;;;;-3.70;75.62;101373.56;6214276;23;20040;-84
2024/01/13 07:02:19;;;;;;;1.67;0.40;;;;;;;-3.71;75.96;101361.69;6216427;23;20053;-85
2024/01/13 07:04:50;;;;;;;0.80;0.43;;;;;;;-3.80;76.85;101373.44;6216105;23;20047;-85
2024/01/13 07:07:24;;;;;;;0.70;0.40;;;;;;;-3.81;76.60;101369.13;6215262;23;20017;-85
2024/01/13 07:09:55;;;;;;;2.40;0.93;;;;;;;-3.79;77.92;101367.63;6215970;23;20502;-84
2024/01/13 07:12:28;;;;;;;1.50;0.40;;;;;;;-3.86;74.88;101371.19;6215641;23;20100;-83
2024/01/13 07:15:05;;;;;;;8.55;1.13;;;;;;;-3.92;75.78;101375.66;6207869;23;20028;-86
2024/01/13 07:17:34;;;;;;;3.10;0.60;;;;;;;-3.93;76.04;101373.88;6213141;23;20106;-84
2024/01/13 07:20:04;;;;;;;1.48;0.55;;;;;;;-4.02;74.53;101366.28;6216471;23;20047;-84
2024/01/13 07:22:34;;;;;;;1.73;0.45;;;;;;;-3.98;75.03;101364.97;6216031;23;20021;-84
2024/01/13 07:25:11;;;;;;;1.63;0.68;;;;;;;-4.01;73.96;101370.63;6214148;23;20111;-84
2024/01/13 07:27:40;;;;;;;1.10;0.75;;;;;;;-4.00;74.92;101371.50;6213580;23;20016;-84
2024/01/13 07:30:31;;;;;;;1.30;0.70;;;;;;;-4.01;76.51;101360.50;6214929;23;20020;-84
2024/01/13 07:33:00;;;;;;;4.78;0.60;;;;;;;-3.95;76.67;101377.00;6212365;23;20028;-85
2024/01/13 07:35:29;;;;;;;1.65;0.50;;;;;;;-3.91;75.36;101376.56;6214965;23;20024;-84
2024/01/13 07:38:06;;;;;;;0.70;0.57;;;;;;;-3.90;75.90;101370.75;6214039;23;20020;-84
2024/01/13 07:40:35;;;;;;;5.95;0.90;;;;;;;-3.92;74.75;101374.75;6214705;23;20020;-83
2024/01/13 07:43:04;;;;;;;1.75;0.50;;;;;;;-3.90;77.99;101368.22;6213698;23;20020;-84
2024/01/13 07:45:57;;;;;;;1.25;0.73;;;;;;;-4.02;75.93;101362.88;6214092;23;20012;-84
2024/01/13 07:48:26;;;;;;;2.15;0.68;;;;;;;-3.95;74.70;101361.84;6213842;23;20021;-85
2024/01/13 07:51:08;;;;;;;;;;;;;;;;;;;;;
2024/01/13 07:53:37;;;;;;;2.13;0.68;;;;;;;-3.94;75.64;101351.88;6215650;23;20031;-84
2024/01/13 07:56:07;;;;;;;1.13;0.68;;;;;;;-3.95;75.63;101366.91;6216832;23;20107;-84
2024/01/13 07:58:36;;;;;;;2.47;0.47;;;;;;;-4.03;75.21;101356.94;6215168;23;20017;-85
2024/01/13 08:01:10;;;;;;;0.80;0.47;;;;;;;-4.06;74.97;101341.47;6213986;23;20028;-84
2024/01/13 08:03:39;;;;;;;1.58;0.60;;;;;;;-4.12;75.88;101340.88;6213805;23;20091;-85
2024/01/13 08:06:09;;;;;;;1.50;0.82;;;;;;;-4.16;77.13;101325.28;6215279;23;20020;-85
2024/01/13 08:08:47;;;;;;;1.13;0.70;;;;;;;-4.14;79.43;101322.16;6212316;23;20071;-84
2024/01/13 08:11:15;;;;;;;2.05;0.68;;;;;;;-4.18;79.06;101319.19;6214306;23;20017;-84
2024/01/13 08:13:46;;;;;;;1.23;0.60;;;;;;;-4.25;77.74;101300.00;6207324;23;20060;-83
2024/01/13 08:16:17;;;;;;;1.95;0.55;;;;;;;-4.29;76.64;101319.00;6209478;23;20129;-84
2024/01/13 08:18:52;;;;;;;3.70;0.80;;;;;;;-4.34;73.79;101310.09;6211633;23;20274;-84
2024/01/13 08:21:21;;;;;;;0.80;0.40;;;;;;;-4.38;72.74;101304.59;6218138;23;20025;-84
2024/01/13 08:23:50;;;;;;;3.80;0.85;;;;;;;-4.42;74.67;101299.25;6217037;23;20040;-83
2024/01/13 08:26:19;;;;;;;2.35;0.95;;;;;;;-4.45;74.74;101309.03;6214466;23;20016;-85
2024/01/13 08:28:57;;;;;;;2.75;0.57;;;;;;;-4.47;76.92;101290.31;6213972;23;20016;-84
2024/01/13 08:31:28;;;;;;;0.22;0.22;;;;;;;-4.56;74.84;101279.31;6212812;23;20091;-83
2024/01/13 08:33:57;;;;;;;0.22;0.20;;;;;;;-4.56;75.41;101284.38;6208514;23;20029;-83
2024/01/13 08:36:28;;;;;;;1.13;0.80;;;;;;;-4.64;75.16;101280.22;6210958;23;20051;-83
2024/01/13 08:38:57;;;;;;;4.40;0.20;;;;;;;-4.64;76.83;101270.13;6207957;23;20020;-83
2024/01/13 08:41:26;;;;;;;0.00;0.00;;;;;;;-4.63;75.65;101280.38;6207493;23;20039;-82
2024/01/13 08:43:55;;;;;;;1.40;0.43;;;;;;;-4.65;75.27;101283.47;6206561;23;20048;-84
2024/01/13 08:46:25;;;;;;;1.02;0.57;;;;;;;-4.63;76.86;101274.41;6206992;23;20023;-83
2024/01/13 08:48:59;;;;;;;4.75;1.00;;;;;;;-4.64;76.61;101265.94;6208334;23;20103;-82
2024/01/13 08:51:28;;;;;;;4.05;0.17;;;;;;;-4.62;78.42;101268.63;6207485;23;20055;-83
2024/01/13 08:53:57;;;;;;;1.02;0.60;;;;;;;-4.72;76.12;101265.94;6207535;23;20025;-83
2024/01/13 08:56:26;;;;;;;1.88;0.57;;;;;;;-4.76;77.31;101284.06;6208516;23;20036;-84
2024/01/13 08:58:55;;;;;;;6.07;0.90;;;;;;;-4.73;78.90;101289.41;6207337;23;20032;-85
2024/01/13 09:01:25;;;;;;;1.95;0.50;;;;;;;-4.70;77.91;101289.72;6208836;23;20021;-84
2024/01/13 09:03:55;;;;;;;3.50;0.82;;;;;;;-4.72;76.63;101291.19;6209834;23;20023;-83
2024/01/13 09:06:24;;;;;;;8.38;0.22;;;;;;;-4.74;77.07;101290.13;6212475;23;20017;-83
2024/01/13 09:09:04;;;;;;;0.35;0.35;;;;;;;-4.80;78.81;101292.09;6213714;23;20016;-82
2024/01/13 09:11:33;;;;;;;2.97;1.45;;;;;;;-4.91;78.99;101278.38;6214099;23;20027;-83
2024/01/13 09:14:02;;;;;;;0.30;0.10;;;;;;;-4.93;78.78;101270.66;6208147;23;20047;-83
2024/01/13 09:16:32;;;;;;;1.08;0.57;;;;;;;-4.95;79.68;101246.88;6213311;23;20353;-85
2024/01/13 09:19:06;;;;;;;2.45;0.75;;;;;;;-4.93;80.12;101249.56;6212398;23;20021;-83
2024/01/13 09:21:35;;;;;;;1.75;0.57;;;;;;;-4.95;78.84;101241.84;6213091;23;20025;-83
2024/01/13 09:24:04;;;;;;;0.45;0.43;;;;;;;-4.97;78.38;101238.31;6213733;23;20017;-84
2024/01/13 09:26:33;;;;;;;1.20;1.17;;;;;;;-5.00;79.40;101230.41;6214334;23;20020;-83
2024/01/13 09:29:06;;;;;;;0.00;0.00;;;;;;;-4.95;81.23;101225.81;6216080;23;20143;-83
2024/01/13 09:31:35;;;;;;;2.38;1.10;;;;;;;-4.88;80.61;101224.06;6216352;23;20088;-83
2024/01/13 09:34:07;;;;;;;0.20;0.20;;;;;;;-4.93;76.31;101215.13;6215281;23;20024;-83
2024/01/13 09:36:50;;;;;;;0.30;0.30;;;;;;;-5.00;76.52;101210.22;6215361;23;20021;-82
2024/01/13 09:39:19;;;;;;;1.25;0.52;;;;;;;-5.02;78.05;101200.72;6216579;23;20016;-83
2024/01/13 09:41:48;;;;;;;0.30;0.30;;;;;;;-5.01;77.05;101215.16;6216135;23;20017;-83
2024/01/13 09:44:32;;;;;;;0.10;0.10;;;;;;;-5.00;79.39;101206.81;6213622;23;20133;-84
2024/01/13 09:47:02;;;;;;;0.00;0.00;;;;;;;-5.01;78.88;101215.16;6214039;23;20027;-83
2024/01/13 09:49:34;;;;;;;0.10;0.10;;;;;;;-5.02;78.88;101206.66;6213026;23;20032;-83
2024/01/13 09:52:10;;;;;;;1.65;0.90;;;;;;;-5.04;76.78;101195.50;6213059;23;20452;-84
2024/01/13 09:54:41;;;;;;;0.57;0.40;;;;;;;-5.06;78.54;101194.50;6217350;23;20051;-83
2024/01/13 09:57:10;;;;;;;1.35;0.85;;;;;;;-5.07;79.59;101196.09;6214380;23;20027;-84
2024/01/13 09:59:41;;;;;;;4.80;0.32;;;;;;;-5.12;78.94;101194.78;6213469;23;20029;-84
2024/01/13 10:02:14;;;;;;;1.00;1.00;;;;;;;-5.05;78.00;101202.19;6209686;23;20017;-84
2024/01/13 10:04:45;;;;;;;;;;;;;;;-5.03;78.55;101197.31;6214027;23;20017;-84
2024/01/13 10:07:14;;;;;;;0.20;0.20;;;;;;;-5.05;77.54;101213.94;6212993;23;19916;-83
2024/01/13 10:09:51;;;;;;;0.70;0.50;;;;;;;-5.05;78.31;101213.94;6212641;23;20461;-83
2024/01/13 10:12:20;;;;;;;5.95;0.63;;;;;;;-5.10;77.63;101184.84;6214106;23;20020;-83
2024/01/13 10:14:50;;;;;;;0.75;0.52;;;;;;;-5.11;76.71;101198.19;6206978;23;20107;-83
2024/01/13 10:17:19;;;;;;;0.90;0.70;;;;;;;-5.15;77.22;101191.06;6207816;23;20020;-83
2024/01/13 10:19:54;;;;;;;2.50;0.55;;;;;;;-5.16;79.36;101204.41;6213387;23;20020;-83
2024/01/13 10:22:25;;;;;;;1.35;0.50;;;;;;;-5.17;79.55;101192.56;6213582;23;20025;-84
2024/01/13 10:24:54;;;;;;;0.43;0.30;;;;;;;-5.21;80.61;101180.38;6211767;23;20040;-84
2024/01/13 10:27:24;;;;;;;1.73;0.50;;;;;;;-5.19;82.06;101174.72;6213291;23;20017;-84
2024/01/13 10:29:56;;;;;;;1.08;0.43;;;;;;;-5.23;82.12;101171.75;6214083;23;20020;-84
2024/01/13 10:32:25;;;;;;;0.50;0.40;;;;;;;-5.29;82.91;101156.88;6212450;23;20091;-83
2024/01/13 10:34:56;;;;;;;0.98;0.55;;;;;;;-5.27;83.88;101150.38;6216906;23;20016;-83
2024/01/13 10:37:35;;;;;;;1.25;0.73;;;;;;;-5.33;84.27;101150.66;6213715;23;20121;-83
2024/01/13 10:40:09;;;;;;;1.98;0.10;;;;;;;-5.36;84.61;101159.56;6212895;23;20021;-84
2024/01/13 10:42:40;;;;;;;0.52;0.50;;;;;;;-5.40;84.46;101153.34;6208346;23;20052;-83
2024/01/13 10:45:18;;;;;;;0.20;0.20;;;;;;;-5.53;84.88;101136.09;6212168;23;20021;-83
2024/01/13 10:47:52;;;;;;;0.35;0.30;;;;;;;-5.50;85.36;101131.38;6211614;23;20092;-82
2024/01/13 10:50:26;;;;;;;0.63;0.50;;;;;;;-5.48;86.45;101144.09;6212404;23;20036;-83
2024/01/13 10:53:05;;;;;;;0.82;0.68;;;;;;;-5.51;84.15;101153.91;6213259;23;20043;-84
2024/01/13 10:55:36;;;;;;;1.80;1.13;;;;;;;-5.50;87.06;101143.97;6212374;23;20210;-83
2024/01/13 10:58:05;;;;;;;0.20;0.20;;;;;;;-5.48;84.29;101136.53;6212897;23;20024;-83
2024/01/13 11:00:38;;;;;;;1.35;0.47;;;;;;;-5.48;85.61;101141.59;6210697;23;20055;-85
2024/01/13 11:03:08;;;;;;;2.40;1.08;;;;;;;-5.52;86.96;101140.41;6205945;23;20040;-86
2024/01/13 11:05:39;;;;;;;0.10;0.10;;;;;;;-5.50;85.91;101140.53;6206117;23;20021;-83
2024/01/13 11:08:14;;;;;;;0.73;0.43;;;;;;;-5.49;85.38;101127.22;6208590;23;20024;-82
2024/01/13 11:10:48;;;;;;;3.00;1.08;;;;;;;-5.44;85.92;101120.09;6207679;23;20023;-83
2024/01/13 11:13:24;;;;;;;1.10;0.55;;;;;;;-5.46;84.39;101112.38;6206934;23;20028;-85
2024/01/13 11:16:06;;;;;;;0.00;0.00;;;;;;;-5.52;83.85;101107.63;6209782;23;20032;-82
2024/01/13 11:18:45;;;;;;;0.60;0.40;;;;;;;-5.51;82.51;101098.44;6204510;23;20051;-83
2024/01/13 11:21:19;;;;;;;0.20;0.20;;;;;;;-5.54;81.73;101093.97;6210417;23;20021;-82
2024/01/13 11:23:49;;;;;;;0.52;0.35;;;;;;;-5.56;82.09;101087.00;6208182;23;20031;-84
2024/01/13 11:26:21;;;;;;;0.85;0.47;;;;;;;-5.52;82.18;101087.47;6202779;23;20095;-83
2024/01/13 11:29:01;;;;;;;3.67;1.35;;;;;;;-5.54;82.59;101078.84;6216188;23;20039;-82
2024/01/13 11:31:40;;;;;;;0.68;0.68;;;;;;;-5.50;82.47;101082.53;6207560;23;20023;-83
2024/01/13 11:34:15;;;;;;;2.05;0.43;;;;;;;-5.47;82.14;101101.41;6209596;23;20024;-84
2024/01/13 11:36:48;;;;;;;0.00;0.00;;;;;;;-5.51;83.49;101106.00;6212632;23;20106;-84
2024/01/13 11:39:17;;;;;;;;;;;;;;;-5.55;81.04;101106.41;6212493;23;20016;-85
2024/01/13 11:42:03;;;;;;;1.00;0.32;;;;;;;-5.56;81.56;101095.44;6214127;23;19950;-85
2024/01/13 11:44:37;;;;;;;0.10;0.10;;;;;;;-5.51;82.46;101111.91;6213078;23;20054;-85
2024/01/13 11:47:15;;;;;;;2.22;0.22;;;;;;;-5.52;80.59;101100.06;6213728;23;20013;-83
2024/01/13 11:49:46;;;;;;;0.43;0.25;;;;;;;-5.55;80.53;101096.34;6213193;23;20028;-84
2024/01/13 11:52:18;;;;;;;0.28;0.10;;;;;;;-5.54;80.09;101093.09;6213377;23;20028;-84
2024/01/13 11:54:47;;;;;;;0.63;0.63;;;;;;;-5.53;80.56;101074.69;6218526;23;20051;-82
2024/01/13 11:57:19;;;;;;;0.77;0.50;;;;;;;-5.59;80.20;101058.94;6213406;23;20052;-83
2024/01/13 11:59:48;;;;;;;0.30;0.30;;;;;;;-5.61;79.22;101065.47;6213474;23;20017;-84
2024/01/13 12:02:18;;;;;;;0.85;0.38;;;;;;;-5.64;81.08;101045.00;6214587;23;20435;-84
2024/01/13 12:04:51;;;;;;;0.68;0.30;;;;;;;-5.70;82.13;101031.06;6214168;23;20020;-83
2024/01/13 12:07:31;;;;;;;0.30;0.00;;;;;;;-5.70;82.46;101026.03;6213596;23;20022;-84
2024/01/13 12:10:02;;;;;;;0.17;0.17;;;;;;;-5.70;81.73;101021.00;6212744;23;20015;-83
2024/01/13 12:12:35;;;;;;;0.28;0.10;;;;;;;-5.66;82.31;100994.44;6211184;23;20048;-84
2024/01/13 12:15:04;;;;;;;;;;;;;;;-5.62;83.47;100995.63;6209171;23;20024;-83
2024/01/13 12:17:33;;;;;;;0.00;0.00;;;;;;;-5.64;81.29;100974.44;6209230;23;19944;-83
2024/01/13 12:20:06;;;;;;;0.00;0.00;;;;;;;-5.73;82.97;100970.25;6213846;23;20040;-84
2024/01/13 12:22:40;;;;;;;0.77;0.47;;;;;;;-5.75;82.75;100974.28;6213724;23;20273;-84
2024/01/13 12:25:10;;;;;;;0.10;0.10;;;;;;;-5.83;82.88;100947.44;6213782;23;20124;-84
2024/01/13 12:27:39;;;;;;;0.00;0.00;;;;;;;-5.81;83.24;100943.44;6213209;23;20421;-84
2024/01/13 12:30:10;;;;;;;1.80;0.57;;;;;;;-5.81;82.73;100924.91;6213678;23;20055;-84
2024/01/13 12:32:47;;;;;;;0.25;0.25;;;;;;;-5.86;84.31;100901.78;6212072;23;20075;-84
2024/01/13 12:35:16;;;;;;;2.17;0.15;;;;;;;-5.92;83.48;100904.59;6217289;23;20023;-85
2024/01/13 12:37:47;;;;;;;0.00;0.00;;;;;;;-5.98;83.65;100899.03;6212949;23;20023;-83
2024/01/13 12:40:27;;;;;;;0.23;0.23;;;;;;;-6.05;81.74;100890.69;6213721;23;20017;-85
2024/01/13 12:42:57;;;;;;;1.42;0.70;;;;;;;-6.11;81.64;100891.88;6214493;23;20025;-83
2024/01/13 12:45:30;;;;;;;0.00;0.00;;;;;;;-6.17;82.71;100873.66;6214575;23;20532;-83
2024/01/13 12:48:04;;;;;;;0.00;0.00;;;;;;;-6.14;83.30;100888.16;6213894;23;20026;-83
2024/01/13 12:50:36;;;;;;;0.10;0.10;;;;;;;-6.15;82.27;100879.72;6213603;23;20025;-84
2024/01/13 12:53:08;;;;;;;1.35;0.70;;;;;;;-6.15;81.62;100888.91;6213950;23;20024;-84
2024/01/13 12:55:45;;;;;;;0.93;0.35;;;;;;;-6.19;81.21;100885.19;6212229;23;20012;-85
2024/01/13 12:58:14;;;;;;;0.13;0.13;;;;;;;-6.22;81.48;100854.69;6213969;23;20013;-84
2024/01/13 13:00:43;;;;;;;0.00;0.00;;;;;;;-6.25;80.71;100869.50;6212265;23;20020;-85
2024/01/13 13:03:12;;;;;;;3.45;0.45;;;;;;;-6.23;83.63;100847.91;6213147;23;20020;-85
2024/01/13 13:05:46;;;;;;;0.95;0.68;;;;;;;-6.21;81.85;100880.75;6214140;23;20020;-85
2024/01/13 13:08:18;;;;;;;0.00;0.00;;;;;;;-6.20;80.65;100868.31;6213537;23;20048;-86
2024/01/13 13:10:48;;;;;;;0.00;0.00;;;;;;;-6.21;81.15;100869.03;6214560;23;20107;-86
2024/01/13 13:13:17;;;;;;;2.53;0.73;;;;;;;-6.27;81.02;100855.00;6213232;23;20028;-85
2024/01/13 13:15:54;;;;;;;0.30;0.20;;;;;;;-6.29;77.93;100867.44;6207403;23;20313;-85
2024/01/13 13:18:24;;;;;;;0.10;0.05;;;;;;;-6.22;78.09;100877.34;6208295;23;20020;-85
2024/01/13 13:20:53;;;;;;;3.42;0.60;;;;;;;-6.22;80.62;100852.19;6213901;23;20036;-86
2024/01/13 13:23:33;;;;;;;0.00;0.00;;;;;;;-6.29;79.82;100839.72;6213749;23;20023;-87
2024/01/13 13:26:05;;;;;;;0.17;0.17;;;;;;;-6.20;79.03;100838.09;6214052;23;20023;-86
2024/01/13 13:28:35;;;;;;;0.93;0.20;;;;;;;-6.14;78.62;100847.88;6213697;23;20028;-85
2024/01/13 13:31:13;;;;;;;2.38;0.45;;;;;;;-6.11;77.24;100841.50;6213703;23;20017;-83
2024/01/13 13:33:42;;;;;;;0.90;0.50;;;;;;;-6.12;78.52;100826.25;6213047;23;20020;-84
2024/01/13 13:36:15;;;;;;;0.00;0.00;;;;;;;-6.14;77.35;100823.59;6212659;23;20070;-84
2024/01/13 13:38:52;;;;;;;3.45;0.55;;;;;;;-6.19;78.03;100819.72;6211707;23;20047;-86
2024/01/13 13:41:22;;;;;;;0.30;0.30;;;;;;;-6.19;75.91;100806.25;6213107;23;20460;-84
2024/01/13 13:43:52;;;;;;;1.50;0.70;;;;;;;-6.20;75.69;100807.00;6212585;23;20016;-85
2024/01/13 13:46:23;;;;;;;0.30;0.25;;;;;;;-6.17;77.36;100803.13;6213071;23;20024;-85
2024/01/13 13:48:55;;;;;;;0.10;0.10;;;;;;;-6.22;73.18;100786.69;6213302;23;20055;-84
2024/01/13 13:51:24;;;;;;;0.00;0.00;;;;;;;-6.16;75.78;100777.22;6213408;23;20087;-85
2024/01/13 13:53:56;;;;;;;0.17;0.17;;;;;;;-6.21;73.43;100775.88;6216057;23;20024;-84
2024/01/13 13:56:31;;;;;;;1.03;0.23;;;;;;;-6.26;73.59;100756.03;6212860;23;20095;-86
2024/01/13 13:59:00;;;;;;;0.65;0.45;;;;;;;-6.21;73.13;100778.38;6211405;23;20115;-85
2024/01/13 14:01:30;;;;;;;0.30;0.30;;;;;;;-6.25;71.65;100771.31;6213998;23;20024;-85
2024/01/13 14:03:59;;;;;;;2.17;0.65;;;;;;;-6.26;69.67;100774.53;6212190;23;20051;-86
2024/01/13 14:06:44;;;;;;;0.80;0.80;;;;;;;-6.22;71.96;100768.19;6211478;23;20020;-87
2024/01/13 14:09:16;;;;;;;0.05;0.00;;;;;;;-6.27;71.79;100742.56;6213010;23;20017;-86
2024/01/13 14:11:48;;;;;;;0.65;0.57;;;;;;;-6.29;71.22;100744.03;6213067;23;20031;-87
2024/01/13 14:14:19;;;;;;;0.08;0.00;;;;;;;-6.28;69.78;100748.31;6206706;23;20024;-85
2024/01/13 14:16:49;;;;;;;0.17;0.15;;;;;;;-6.28;68.63;100745.81;6208123;23;20025;-85
2024/01/13 14:19:18;;;;;;;1.45;1.02;;;;;;;-6.37;69.90;100723.19;6212302;23;20110;-85
2024/01/13 14:21:50;;;;;;;0.05;0.05;;;;;;;-6.27;71.24;100724.94;6215776;23;20023;-86
2024/01/13 14:24:21;;;;;;;0.95;0.52;;;;;;;-6.32;69.92;100716.06;6211774;23;20083;-84
2024/01/13 14:26:54;;;;;;;0.70;0.40;;;;;;;-6.30;72.31;100729.66;6211073;23;20016;-85
2024/01/13 14:29:23;;;;;;;;;;;;;;;-6.28;71.40;100723.16;6214434;23;20063;-85
2024/01/13 14:31:55;;;;;;;0.68;0.45;;;;;;;-6.34;71.11;100717.56;6215456;23;19916;-86